MAA weather

Chennai International Airport
Chennai, Tamil Nadu, India

Public forecast

Using degrees Celsius for public forecast. Weather courtesy of forecast.io.

METAR (pilot weather report)

Retrieved 2019/04/23 16:30 UTC (0 seconds ago):

VOMM 231630Z 12006KT 6000 FEW020 31/26 Q1010 NOSIG

TAF (pilot weather forecast)

Retrieved 2019/04/23 12:00 UTC (4 hours ago):

TAF VOMM 231100Z 2312/2418 14010KT 6000 FEW020 SCT100 TEMPO 2312/2318 SCT018 FEW025TCU/CB BKN100 BECMG 2321/2322 24005KT 4000 HZ BECMG 2403/2404 18010KT 6000 BECMG 2406/2407 12010G25KT TEMPO 2409/2415 SCT018 FEW025TCU/CB BKN100 BECMG 2412/2413 14010KT